Rechercher aéroport 
image banner adimage banner adimage banner ad
image banner ad

5CA2 - Ord Mountain

Situé à Barstow, United States

ICAO - 5CA2, IATA -

Données fournies par Airmate  

Information générale

Coordonnées: N34°40'32" W116°48'55"
Élévation : 6120 feet MSL.
Variation magnétique : 14° East
Voir autres Aéroports à California

Données opérationnelles

Special qualification required
Heure actuelle UTC:
Heure actuelle locale:
Météo à : KDAG - Barstow-Daggett ( 20 km )
METAR: KDAG 210250Z AUTO 08004KT 10SM CLR 27/M02 A3000 RMK AO2 SLP139 T02671022 53011
TAF: KDAG 202320Z 2100/2124 07010KT P6SM SKC FM210300 VRB04KT P6SM SKC FM210800 28006KT P6SM SKC FM211900 06010KT P6SM SKC
Voir NOTAMs / SUP AIP / TFR affectant cet aéroport [VIEW]
Fréquences de communication: [VIEW]

Pistes:

Coordonnées de l'aéroport

Adresse: Barstow United States

Vue satellite de 5CA2